createdAt,value
2019-05-12T00:00:58.510Z,97392.30
2019-05-12T00:02:02.430Z,97389.05
2019-05-12T00:03:08.286Z,97394.14
2019-05-12T00:04:11.747Z,97398.61
2019-05-12T00:05:18.188Z,97392.99
2019-05-12T00:06:21.127Z,97390.66
2019-05-12T00:07:24.762Z,97389.61
2019-05-12T00:08:30.891Z,97386.45
2019-05-12T00:09:34.648Z,97386.45
2019-05-12T00:10:38.969Z,97389.14
2019-05-12T00:11:42.750Z,97386.25
2019-05-12T00:12:48.184Z,97384.99
2019-05-12T00:13:52.198Z,97384.99
2019-05-12T00:14:56.144Z,97381.74
2019-05-12T00:16:00.097Z,97383.33
2019-05-12T00:17:03.917Z,97383.33
2019-05-12T00:18:10.383Z,97385.55
2019-05-12T00:19:14.208Z,97387.56
2019-05-12T00:20:18.499Z,97386.42
2019-05-12T00:21:22.793Z,97395.62
2019-05-12T00:22:28.667Z,97396.96
2019-05-12T00:23:34.031Z,97400.12
2019-05-12T00:24:38.361Z,97399.33
2019-05-12T00:25:42.744Z,97397.98
2019-05-12T00:26:47.812Z,97399.89
2019-05-12T00:27:51.767Z,97404.92
2019-05-12T00:28:55.461Z,97404.92
2019-05-12T00:29:59.276Z,97401.89
2019-05-12T00:31:03.462Z,97407.50
2019-05-12T00:32:08.581Z,97408.38
2019-05-12T00:33:12.305Z,97411.95
2019-05-12T00:34:18.215Z,97411.31
2019-05-12T00:35:21.615Z,97407.91
2019-05-12T00:36:25.889Z,97407.91
2019-05-12T00:37:29.441Z,97407.48
2019-05-12T00:38:33.175Z,97401.86
2019-05-12T00:39:38.200Z,97407.57
2019-05-12T00:40:42.128Z,97404.44
2019-05-12T00:41:48.042Z,97402.08
2019-05-12T00:42:51.314Z,97403.98
2019-05-12T00:43:55.048Z,97403.19
2019-05-12T00:44:58.871Z,97407.55
2019-05-12T00:46:02.913Z,97403.86
2019-05-12T00:47:08.164Z,97403.39
2019-05-12T00:48:11.983Z,97400.82
2019-05-12T00:49:18.442Z,97403.39
2019-05-12T00:50:21.201Z,97398.02
2019-05-12T00:51:25.289Z,97388.57
2019-05-12T00:52:28.998Z,97388.57
2019-05-12T00:53:39.853Z,97389.91
2019-05-12T00:54:38.196Z,97392.05
2019-05-12T00:55:42.017Z,97395.30
2019-05-12T00:56:48.013Z,97397.48
2019-05-12T00:57:51.662Z,97396.43
2019-05-12T00:58:55.346Z,97395.41
2019-05-12T01:00:00.788Z,97397.42
2019-05-12T01:01:04.486Z,97401.02
2019-05-12T01:02:08.306Z,97402.60
2019-05-12T01:03:11.961Z,97405.88
2019-05-12T01:04:17.557Z,97407.70
2019-05-12T01:05:21.390Z,97410.52
2019-05-12T01:06:25.211Z,97410.11
2019-05-12T01:07:28.861Z,97413.48
2019-05-12T01:08:32.730Z,97415.84
2019-05-12T01:09:38.443Z,97413.36
2019-05-12T01:10:42.024Z,97416.95
2019-05-12T01:11:47.992Z,97410.00
2019-05-12T01:12:51.204Z,97411.46
2019-05-12T01:13:54.946Z,97413.94
2019-05-12T01:14:58.784Z,97409.00
2019-05-12T01:16:02.768Z,97420.23
2019-05-12T01:17:08.403Z,97420.08
2019-05-12T01:18:12.147Z,97422.09
2019-05-12T01:19:18.362Z,97425.78
2019-05-12T01:20:21.740Z,97418.22
2019-05-12T01:21:25.556Z,97424.71
2019-05-12T01:22:29.205Z,97429.09
2019-05-12T01:23:33.097Z,97432.30
2019-05-12T01:24:38.403Z,97436.09
2019-05-12T01:25:42.438Z,97437.38
2019-05-12T01:26:47.642Z,97433.19
2019-05-12T01:27:51.555Z,97434.88
2019-05-12T01:28:55.251Z,97436.03
2019-05-12T01:29:59.094Z,97434.58
2019-05-12T01:31:04.699Z,97436.95
2019-05-12T01:32:19.159Z,97435.13
2019-05-12T01:33:23.151Z,97434.69
2019-05-12T01:34:27.788Z,97438.87
2019-05-12T01:35:31.585Z,97430.20
2019-05-12T01:36:37.957Z,97431.02
2019-05-12T01:37:40.759Z,97431.91
2019-05-12T01:38:44.598Z,97431.89
2019-05-12T01:39:49.117Z,97434.66
2019-05-12T01:40:53.255Z,97424.39
2019-05-12T01:41:58.711Z,97433.86
2019-05-12T01:43:02.419Z,97436.88
2019-05-12T01:44:08.630Z,97443.41
2019-05-12T01:45:12.194Z,97436.61
2019-05-12T01:46:18.019Z,97436.17
2019-05-12T01:47:21.707Z,97433.38
2019-05-12T01:48:25.350Z,97435.08
2019-05-12T01:49:29.286Z,97436.62
2019-05-12T01:50:32.929Z,97434.73
2019-05-12T01:51:38.483Z,97433.94
2019-05-12T01:52:42.574Z,97438.31
2019-05-12T01:53:48.279Z,97439.84
2019-05-12T01:54:51.961Z,97440.64
2019-05-12T01:55:55.771Z,97430.80
2019-05-12T01:56:59.810Z,97436.30
2019-05-12T01:58:08.143Z,97438.13
2019-05-12T01:59:11.350Z,97443.62
2019-05-12T02:00:18.173Z,97440.94
2019-05-12T02:01:21.174Z,97444.80
2019-05-12T02:02:25.411Z,97446.69
2019-05-12T02:03:29.047Z,97441.23
2019-05-12T02:04:50.373Z,97438.31
2019-05-12T02:05:57.815Z,97434.16
2019-05-12T02:07:02.682Z,97441.84
2019-05-12T02:08:09.734Z,97435.20
2019-05-12T02:09:18.733Z,97435.98
2019-05-12T02:10:23.154Z,97439.60
2019-05-12T02:11:32.950Z,97438.73
2019-05-12T02:12:38.293Z,97437.63
2019-05-12T02:13:42.757Z,97425.37
2019-05-12T02:14:48.548Z,97428.12
2019-05-12T02:15:51.982Z,97423.72
2019-05-12T02:16:55.632Z,97435.87
2019-05-12T02:17:59.577Z,97424.75
2019-05-12T02:19:03.246Z,97424.75
2019-05-12T02:20:09.284Z,97416.53
2019-05-12T02:21:12.835Z,97426.72
2019-05-12T02:22:18.843Z,97421.16
2019-05-12T02:23:22.139Z,97434.41
2019-05-12T02:24:27.972Z,97428.59
2019-05-12T02:25:31.471Z,97428.59
2019-05-12T02:26:35.283Z,97438.02
2019-05-12T02:27:38.959Z,97439.84
2019-05-12T02:28:42.786Z,97442.77
2019-05-12T02:29:48.020Z,97438.81
2019-05-12T02:30:51.990Z,97444.73
2019-05-12T02:31:58.717Z,97438.67
2019-05-12T02:33:01.542Z,97443.36
2019-05-12T02:34:06.000Z,97444.53
2019-05-12T02:35:10.398Z,97447.22
2019-05-12T02:36:15.061Z,97446.67
2019-05-12T02:37:19.269Z,97447.15
2019-05-12T02:38:25.128Z,97452.45
2019-05-12T02:39:28.454Z,97452.45
2019-05-12T02:40:34.678Z,97448.91
2019-05-12T02:41:37.778Z,97450.25
2019-05-12T02:42:41.623Z,97450.98
2019-05-12T02:43:46.041Z,97454.90
2019-05-12T02:44:50.495Z,97452.22
2019-05-12T02:45:54.860Z,97452.63
2019-05-12T02:46:58.578Z,97456.00
2019-05-12T02:48:05.027Z,97452.88
2019-05-12T02:49:08.094Z,97449.39
2019-05-12T02:50:14.518Z,97447.95
2019-05-12T02:51:17.789Z,97441.89
2019-05-12T02:52:25.064Z,97441.89
2019-05-12T02:53:29.007Z,97452.22
2019-05-12T02:54:50.558Z,97454.66
2019-05-12T02:55:41.087Z,97457.83
2019-05-12T02:56:46.959Z,97457.59
2019-05-12T02:57:51.318Z,97456.48
2019-05-12T02:58:56.329Z,97452.59
2019-05-12T03:00:04.716Z,97453.88
2019-05-12T03:01:08.397Z,97459.34
2019-05-12T03:02:14.344Z,97461.52
2019-05-12T03:03:20.641Z,97465.98
2019-05-12T03:04:26.219Z,97459.28
2019-05-12T03:05:30.753Z,97465.92
2019-05-12T03:06:36.420Z,97463.95
2019-05-12T03:07:44.752Z,97462.44
2019-05-12T03:08:49.899Z,97466.88
2019-05-12T03:09:55.920Z,97467.09
2019-05-12T03:10:59.572Z,97467.09
2019-05-12T03:12:05.835Z,97463.92
2019-05-12T03:13:08.826Z,97469.67
2019-05-12T03:14:15.606Z,97467.22
2019-05-12T03:15:18.025Z,97473.45
2019-05-12T03:16:25.406Z,97468.09
2019-05-12T03:17:27.557Z,97468.64
2019-05-12T03:18:34.518Z,97471.91
2019-05-12T03:19:36.760Z,97474.00
2019-05-12T03:20:40.964Z,97466.75
2019-05-12T03:21:44.635Z,97476.86
2019-05-12T03:22:48.378Z,97478.58
2019-05-12T03:23:54.881Z,97479.61
2019-05-12T03:25:11.434Z,97477.38
2019-05-12T03:26:05.145Z,97484.22
2019-05-12T03:27:08.587Z,97485.91
2019-05-12T03:28:15.583Z,97482.67
2019-05-12T03:29:17.879Z,97481.98
2019-05-12T03:30:21.503Z,97483.09
2019-05-12T03:31:31.287Z,97487.84
2019-05-12T03:32:31.023Z,97487.84
2019-05-12T03:33:42.880Z,97486.02
2019-05-12T03:34:40.272Z,97486.50
2019-05-12T03:35:52.373Z,97478.65
2019-05-12T03:36:53.734Z,97487.97
2019-05-12T03:37:57.122Z,97491.59
2019-05-12T03:39:00.844Z,97485.67
2019-05-12T03:40:07.508Z,97491.28
2019-05-12T03:41:14.434Z,97483.09
2019-05-12T03:42:17.068Z,97483.09
2019-05-12T03:43:20.698Z,97495.10
2019-05-12T03:44:27.380Z,97481.75
2019-05-12T03:45:31.049Z,97483.16
2019-05-12T03:46:35.386Z,97489.45
2019-05-12T03:47:39.297Z,97491.34
2019-05-12T03:48:45.393Z,97482.74
2019-05-12T03:49:48.851Z,97490.80
2019-05-12T03:50:54.102Z,97488.11
2019-05-12T03:51:57.964Z,97489.70
2019-05-12T03:53:06.378Z,97489.70
2019-05-12T03:54:07.156Z,97489.14
2019-05-12T03:55:27.349Z,97491.31
2019-05-12T03:56:16.758Z,97491.31
2019-05-12T03:57:20.623Z,97478.61
2019-05-12T03:58:25.617Z,97488.53
2019-05-12T03:59:29.677Z,97488.53
2019-05-12T04:00:35.705Z,97489.01
2019-05-12T04:01:38.885Z,97482.74
2019-05-12T04:02:45.413Z,97491.04
2019-05-12T04:03:48.132Z,97498.44
2019-05-12T04:04:55.287Z,97496.23
2019-05-12T04:05:57.547Z,97494.48
2019-05-12T04:07:01.173Z,97495.64
2019-05-12T04:08:06.532Z,97497.22
2019-05-12T04:09:10.545Z,97499.05
2019-05-12T04:10:15.587Z,97497.70
2019-05-12T04:11:19.611Z,97508.89
2019-05-12T04:12:25.431Z,97504.62
2019-05-12T04:13:28.814Z,97506.20
2019-05-12T04:14:34.545Z,97488.75
2019-05-12T04:15:38.043Z,97499.64
2019-05-12T04:16:44.879Z,97495.66
2019-05-12T04:17:47.530Z,97482.62
2019-05-12T04:18:51.329Z,97491.85
2019-05-12T04:19:55.134Z,97480.03
2019-05-12T04:21:00.467Z,97480.03
2019-05-12T04:22:05.533Z,97485.98
2019-05-12T04:23:09.619Z,97489.28
2019-05-12T04:24:14.322Z,97489.28
2019-05-12T04:25:18.500Z,97492.73
2019-05-12T04:26:25.085Z,97490.25
2019-05-12T04:27:28.116Z,97492.27
2019-05-12T04:28:34.918Z,97494.42
2019-05-12T04:29:37.225Z,97495.19
2019-05-12T04:30:44.270Z,97492.38
2019-05-12T04:31:46.514Z,97501.65
2019-05-12T04:32:50.065Z,97496.53
2019-05-12T04:33:54.677Z,97499.22
2019-05-12T04:34:58.639Z,97499.88
2019-05-12T04:36:05.295Z,97502.39
2019-05-12T04:37:08.271Z,97495.81
2019-05-12T04:38:14.918Z,97493.30
2019-05-12T04:39:17.429Z,97486.53
2019-05-12T04:40:21.256Z,97497.09
2019-05-12T04:41:26.406Z,97502.81
2019-05-12T04:42:30.790Z,97500.91
2019-05-12T04:43:35.400Z,97501.54
2019-05-12T04:44:39.408Z,97494.55
2019-05-12T04:45:45.051Z,97498.92
2019-05-12T04:46:49.287Z,97498.92
2019-05-12T04:47:55.272Z,97497.44
2019-05-12T04:48:59.164Z,97501.37
2019-05-12T04:50:05.347Z,97501.37
2019-05-12T04:51:08.899Z,97500.63
2019-05-12T04:52:15.590Z,97500.63
2019-05-12T04:53:18.319Z,97498.80
2019-05-12T04:54:24.766Z,97503.97
2019-05-12T04:55:27.718Z,97496.33
2019-05-12T04:56:35.426Z,97499.33
2019-05-12T04:57:37.312Z,97498.56
2019-05-12T04:58:41.161Z,97495.28
2019-05-12T04:59:45.255Z,97506.98
2019-05-12T05:00:49.089Z,97501.37
2019-05-12T05:01:54.072Z,97500.91
2019-05-12T05:02:59.029Z,97502.66
2019-05-12T05:04:05.430Z,97502.66
2019-05-12T05:05:09.991Z,97507.24
2019-05-12T05:06:15.003Z,97507.24
2019-05-12T05:07:19.104Z,97507.22
2019-05-12T05:08:24.395Z,97500.20
2019-05-12T05:09:28.644Z,97493.80
2019-05-12T05:10:34.135Z,97493.80
2019-05-12T05:11:38.405Z,97488.28
2019-05-12T05:12:45.039Z,97487.63
2019-05-12T05:13:48.067Z,97487.63
2019-05-12T05:14:54.731Z,97492.91
2019-05-12T05:15:57.711Z,97492.91
2019-05-12T05:17:05.111Z,97496.69
2019-05-12T05:18:07.380Z,97498.75
2019-05-12T05:19:13.315Z,97492.73
2019-05-12T05:20:16.887Z,97487.97
2019-05-12T05:21:20.911Z,97487.97
2019-05-12T05:22:24.857Z,97490.80
2019-05-12T05:23:28.954Z,97495.66
2019-05-12T05:24:33.913Z,97484.74
2019-05-12T05:25:38.195Z,97488.59
2019-05-12T05:26:43.605Z,97489.94
2019-05-12T05:27:47.703Z,97489.94
2019-05-12T05:28:54.099Z,97480.98
2019-05-12T05:29:57.675Z,97480.98
2019-05-12T05:31:03.562Z,97479.77
2019-05-12T05:32:07.312Z,97491.98
2019-05-12T05:33:11.510Z,97497.34
2019-05-12T05:34:15.653Z,97489.73
2019-05-12T05:35:19.468Z,97495.61
2019-05-12T05:36:24.990Z,97495.61
2019-05-12T05:37:30.727Z,97492.08
2019-05-12T05:38:34.926Z,97486.53
2019-05-12T05:39:44.354Z,97487.92
2019-05-12T05:40:45.611Z,97491.72
2019-05-12T05:41:51.174Z,97485.05
2019-05-12T05:42:55.175Z,97490.47
2019-05-12T05:43:59.011Z,97490.05
2019-05-12T05:45:04.826Z,97479.96
2019-05-12T05:46:08.566Z,97483.38
2019-05-12T05:47:13.897Z,97482.95
2019-05-12T05:48:17.771Z,97479.20
2019-05-12T05:49:23.805Z,97485.03
2019-05-12T05:50:29.554Z,97473.88
2019-05-12T05:51:39.325Z,97484.98
2019-05-12T05:52:40.050Z,97476.44
2019-05-12T05:53:44.369Z,97488.66
2019-05-12T05:54:48.343Z,97485.77
2019-05-12T05:55:58.617Z,97480.39
2019-05-12T05:57:02.608Z,97487.67
2019-05-12T05:58:10.127Z,97488.86
2019-05-12T05:59:09.885Z,97484.44
2019-05-12T06:00:22.889Z,97480.91
2019-05-12T06:01:21.201Z,97477.83
2019-05-12T06:02:31.741Z,97480.34
2019-05-12T06:03:34.010Z,97474.80
2019-05-12T06:04:44.091Z,97478.95
2019-05-12T06:05:44.863Z,97481.89
2019-05-12T06:06:56.908Z,97487.27
2019-05-12T06:08:00.723Z,97476.05
2019-05-12T06:09:07.077Z,97476.28
2019-05-12T06:10:14.314Z,97482.56
2019-05-12T06:11:23.966Z,97482.56
2019-05-12T06:12:24.011Z,97474.01
2019-05-12T06:13:31.860Z,97476.66
2019-05-12T06:14:34.239Z,97476.47
2019-05-12T06:15:40.841Z,97472.36
2019-05-12T06:16:47.585Z,97477.39
2019-05-12T06:17:55.536Z,97478.17
2019-05-12T06:18:59.364Z,97473.96
2019-05-12T06:20:04.751Z,97474.08
2019-05-12T06:21:13.577Z,97474.70
2019-05-12T06:22:18.386Z,97461.81
2019-05-12T06:23:24.037Z,97475.00
2019-05-12T06:24:28.213Z,97475.00
2019-05-12T06:25:41.475Z,97480.63
2019-05-12T06:26:38.225Z,97469.71
2019-05-12T06:27:44.328Z,97469.71
2019-05-12T06:28:48.295Z,97481.30
2019-05-12T06:30:00.998Z,97478.02
2019-05-12T06:30:59.466Z,97472.96
2019-05-12T06:32:10.603Z,97473.38
2019-05-12T06:33:09.186Z,97456.95
2019-05-12T06:34:18.977Z,97464.16
2019-05-12T06:35:18.926Z,97464.16
2019-05-12T06:36:27.048Z,97463.50
2019-05-12T06:37:28.475Z,97427.98
2019-05-12T06:38:38.073Z,97453.88
2019-05-12T06:39:38.503Z,97451.06
2019-05-12T06:40:45.323Z,97451.06
2019-05-12T06:41:48.884Z,97444.77
2019-05-12T06:42:54.185Z,97445.10
2019-05-12T06:43:58.513Z,97448.22
2019-05-12T06:45:03.686Z,97447.18
2019-05-12T06:46:11.754Z,97444.61
2019-05-12T06:47:16.477Z,97443.29
2019-05-12T06:48:25.664Z,97446.37
2019-05-12T06:49:27.527Z,97437.25
2019-05-12T06:50:37.100Z,97443.39
2019-05-12T06:51:37.107Z,97442.29
2019-05-12T06:52:46.782Z,97441.04
2019-05-12T06:53:46.701Z,97433.55
2019-05-12T06:54:55.290Z,97435.00
2019-05-12T06:55:56.416Z,97438.31
2019-05-12T06:57:18.673Z,97440.02
2019-05-12T06:58:06.058Z,97438.51
2019-05-12T06:59:12.359Z,97435.23
2019-05-12T07:00:16.019Z,97433.53
2019-05-12T07:01:24.037Z,97432.48
2019-05-12T07:02:30.321Z,97430.94
2019-05-12T07:03:37.009Z,97430.52
2019-05-12T07:04:41.284Z,97435.61
2019-05-12T07:05:46.471Z,97428.77
2019-05-12T07:06:56.230Z,97430.56
2019-05-12T07:07:56.621Z,97430.66
2019-05-12T07:09:08.518Z,97430.21
2019-05-12T07:10:13.033Z,97429.72
2019-05-12T07:11:15.384Z,97426.58
2019-05-12T07:12:24.943Z,97429.16
2019-05-12T07:13:29.377Z,97429.59
2019-05-12T07:14:30.705Z,97434.50
2019-05-12T07:15:39.837Z,97428.86
2019-05-12T07:16:40.362Z,97416.78
2019-05-12T07:17:49.823Z,97425.54
2019-05-12T07:18:54.235Z,97415.09
2019-05-12T07:19:58.477Z,97414.66
2019-05-12T07:21:04.127Z,97413.45
2019-05-12T07:22:43.692Z,97411.16
2019-05-12T07:23:37.942Z,97411.59
2019-05-12T07:24:50.057Z,97411.20
2019-05-12T07:25:50.514Z,97404.77
2019-05-12T07:27:02.635Z,97409.28
2019-05-12T07:28:07.275Z,97397.81
2019-05-12T07:29:08.004Z,97394.13
2019-05-12T07:30:13.647Z,97393.72
2019-05-12T07:31:20.284Z,97389.38
2019-05-12T07:32:24.702Z,97387.12
2019-05-12T07:33:32.893Z,97384.33
2019-05-12T07:34:34.489Z,97387.91
2019-05-12T07:35:40.236Z,97377.59
2019-05-12T07:36:46.157Z,97375.23
2019-05-12T07:37:53.892Z,97378.25
2019-05-12T07:39:04.014Z,97370.55
2019-05-12T07:40:07.403Z,97374.30
2019-05-12T07:41:11.729Z,97369.27
2019-05-12T07:42:16.779Z,97366.14
2019-05-12T07:43:24.249Z,97364.98
2019-05-12T07:44:39.757Z,97368.48
2019-05-12T07:45:36.314Z,97369.83
2019-05-12T07:46:45.697Z,97361.26
2019-05-12T07:47:48.791Z,97362.44
2019-05-12T07:48:56.937Z,97363.37
2019-05-12T07:50:09.868Z,97361.63
2019-05-12T07:51:13.631Z,97360.83
2019-05-12T07:52:17.036Z,97356.35
2019-05-12T07:53:23.244Z,97356.31
2019-05-12T07:54:37.712Z,97357.92
2019-05-12T07:55:39.634Z,97361.25
2019-05-12T07:56:44.374Z,97361.83
2019-05-12T07:57:55.251Z,97355.02
2019-05-12T07:58:57.377Z,97363.59
2019-05-12T08:00:05.980Z,97355.59
2019-05-12T08:01:10.010Z,97356.55
2019-05-12T08:02:14.333Z,97353.23
2019-05-12T08:03:21.248Z,97351.69
2019-05-12T08:04:25.488Z,97349.08
2019-05-12T08:05:33.750Z,97350.84
2019-05-12T08:06:41.747Z,97350.78
2019-05-12T08:07:44.513Z,97351.84
2019-05-12T08:08:50.454Z,97352.93
2019-05-12T08:10:07.223Z,97345.22
2019-05-12T08:11:10.016Z,97340.72
2019-05-12T08:12:19.488Z,97339.78
2019-05-12T08:13:23.787Z,97342.84
2019-05-12T08:14:29.588Z,97337.37
2019-05-12T08:15:33.991Z,97340.37
2019-05-12T08:16:38.226Z,97344.92
2019-05-12T08:17:44.058Z,97334.23
2019-05-12T08:18:48.305Z,97335.85
2019-05-12T08:19:53.664Z,97335.44
2019-05-12T08:21:00.051Z,97336.55
2019-05-12T08:22:04.266Z,97337.50
2019-05-12T08:23:10.662Z,97328.09
2019-05-12T08:24:15.057Z,97326.52
2019-05-12T08:25:24.814Z,97324.34
2019-05-12T08:26:24.614Z,97331.12
2019-05-12T08:27:28.691Z,97317.89
2019-05-12T08:28:36.130Z,97326.92
2019-05-12T08:29:38.372Z,97329.42
2019-05-12T08:30:49.087Z,97333.70
2019-05-12T08:31:48.075Z,97320.25
2019-05-12T08:33:02.528Z,97317.09
2019-05-12T08:34:04.435Z,97318.28
2019-05-12T08:35:13.862Z,97310.44
2019-05-12T08:36:16.482Z,97325.84
2019-05-12T08:37:24.356Z,97314.78
2019-05-12T08:38:28.358Z,97317.15
2019-05-12T08:39:33.748Z,97311.05
2019-05-12T08:40:46.507Z,97313.00
2019-05-12T08:41:44.445Z,97308.20
2019-05-12T08:42:48.491Z,97310.66
2019-05-12T08:43:57.986Z,97308.63
2019-05-12T08:44:58.266Z,97315.87
2019-05-12T08:46:09.895Z,97314.45
2019-05-12T08:47:07.948Z,97307.86
2019-05-12T08:48:21.877Z,97304.53
2019-05-12T08:49:19.884Z,97301.49
2019-05-12T08:50:31.506Z,97309.11
2019-05-12T08:51:29.884Z,97305.94
2019-05-12T08:52:37.290Z,97308.98
2019-05-12T08:53:39.625Z,97304.18
2019-05-12T08:54:45.463Z,97309.28
2019-05-12T08:55:49.255Z,97310.00
2019-05-12T08:56:59.230Z,97306.44
2019-05-12T08:57:58.882Z,97302.87
2019-05-12T08:59:04.304Z,97300.42
2019-05-12T09:00:09.027Z,97312.75
2019-05-12T09:01:13.785Z,97299.97
2019-05-12T09:02:18.407Z,97307.91
2019-05-12T09:03:27.254Z,97303.69
2019-05-12T09:04:28.139Z,97299.00
2019-05-12T09:05:34.475Z,97303.63
2019-05-12T09:06:38.484Z,97301.53
2019-05-12T09:07:43.541Z,97300.22
2019-05-12T09:08:49.505Z,97298.17
2019-05-12T09:09:53.524Z,97292.83
2019-05-12T09:10:57.529Z,97290.95
2019-05-12T09:12:03.428Z,97289.47
2019-05-12T09:13:07.106Z,97292.88
2019-05-12T09:14:10.995Z,97287.83
2019-05-12T09:15:15.312Z,97294.48
2019-05-12T09:16:19.127Z,97285.95
2019-05-12T09:17:24.676Z,97290.69
2019-05-12T09:18:34.232Z,97287.94
2019-05-12T09:19:34.377Z,97279.20
2019-05-12T09:20:40.073Z,97281.39
2019-05-12T09:21:44.352Z,97280.02
2019-05-12T09:22:52.880Z,97283.70
2019-05-12T09:23:56.099Z,97281.39
2019-05-12T09:25:06.188Z,97282.92
2019-05-12T09:26:05.767Z,97278.50
2019-05-12T09:27:09.619Z,97280.52
2019-05-12T09:28:13.952Z,97283.52
2019-05-12T09:29:18.177Z,97281.86
2019-05-12T09:30:29.758Z,97283.83
2019-05-12T09:31:33.872Z,97283.92
2019-05-12T09:32:39.142Z,97288.13
2019-05-12T09:33:44.518Z,97288.91
2019-05-12T09:34:53.240Z,97281.70
2019-05-12T09:35:54.528Z,97279.48
2019-05-12T09:36:59.800Z,97285.53
2019-05-12T09:38:06.203Z,97282.79
2019-05-12T09:39:10.401Z,97284.60
2019-05-12T09:40:15.087Z,97277.63
2019-05-12T09:41:20.448Z,97277.28
2019-05-12T09:42:28.578Z,97281.22
2019-05-12T09:43:30.256Z,97280.70
2019-05-12T09:44:34.496Z,97273.34
2019-05-12T09:45:40.145Z,97282.58
2019-05-12T09:46:44.443Z,97278.42
2019-05-12T09:47:49.218Z,97279.42
2019-05-12T09:48:55.098Z,97279.13
2019-05-12T09:49:58.795Z,97285.56
2019-05-12T09:51:04.817Z,97282.33
2019-05-12T09:52:13.924Z,97278.46
2019-05-12T09:53:14.538Z,97271.28
2019-05-12T09:54:18.880Z,97272.72
2019-05-12T09:55:24.809Z,97270.07
2019-05-12T09:56:28.497Z,97268.20
2019-05-12T09:57:40.607Z,97271.05
2019-05-12T09:58:39.779Z,97273.58
2019-05-12T09:59:45.918Z,97275.64
2019-05-12T10:00:49.387Z,97266.77
2019-05-12T10:01:54.158Z,97269.44
2019-05-12T10:03:00.696Z,97267.19
2019-05-12T10:04:04.021Z,97267.95
2019-05-12T10:05:08.743Z,97267.59
2019-05-12T10:06:17.972Z,97264.80
2019-05-12T10:07:18.305Z,97273.77
2019-05-12T10:08:24.236Z,97275.13
2019-05-12T10:09:27.876Z,97276.94
2019-05-12T10:10:38.138Z,97272.02
2019-05-12T10:11:37.914Z,97276.33
2019-05-12T10:12:48.582Z,97271.67
2019-05-12T10:13:47.496Z,97268.17
2019-05-12T10:14:53.469Z,97271.69
2019-05-12T10:15:58.646Z,97269.73
2019-05-12T10:17:03.637Z,97271.03
2019-05-12T10:18:11.055Z,97271.02
2019-05-12T10:19:14.476Z,97269.64
2019-05-12T10:20:21.475Z,97272.95
2019-05-12T10:21:24.286Z,97271.09
2019-05-12T10:22:40.172Z,97271.78
2019-05-12T10:23:44.389Z,97267.73
2019-05-12T10:24:55.936Z,97265.90
2019-05-12T10:25:55.535Z,97273.76
2019-05-12T10:26:59.608Z,97262.34
2019-05-12T10:28:11.590Z,97266.14
2019-05-12T10:29:17.628Z,97266.36
2019-05-12T10:30:17.304Z,97263.34
2019-05-12T10:31:20.965Z,97256.48
2019-05-12T10:32:24.753Z,97264.09
2019-05-12T10:33:29.901Z,97252.59
2019-05-12T10:34:35.977Z,97259.73
2019-05-12T10:35:39.571Z,97251.69
2019-05-12T10:36:55.432Z,97255.62
2019-05-12T10:38:04.966Z,97259.67
2019-05-12T10:39:05.406Z,97253.88
2019-05-12T10:40:13.845Z,97253.53
2019-05-12T10:41:17.221Z,97252.25
2019-05-12T10:42:21.340Z,97244.67
2019-05-12T10:43:26.649Z,97250.94
2019-05-12T10:44:39.172Z,97250.07
2019-05-12T10:45:36.458Z,97256.11
2019-05-12T10:46:42.467Z,97256.11
2019-05-12T10:47:46.146Z,97244.20
2019-05-12T10:48:50.646Z,97248.95
2019-05-12T10:49:54.479Z,97245.30
2019-05-12T10:50:58.547Z,97245.27
2019-05-12T10:52:03.871Z,97246.51
2019-05-12T10:53:09.791Z,97257.23
2019-05-12T10:54:15.909Z,97244.52
2019-05-12T10:55:33.779Z,97242.03
2019-05-12T10:56:37.855Z,97234.80
2019-05-12T10:57:47.236Z,97239.50
2019-05-12T10:58:53.496Z,97237.66
2019-05-12T10:59:57.630Z,97232.55
2019-05-12T11:01:05.344Z,97239.59
2019-05-12T11:02:07.270Z,97236.59
2019-05-12T11:03:14.721Z,97241.16
2019-05-12T11:04:16.848Z,97240.37
2019-05-12T11:05:22.962Z,97243.52
2019-05-12T11:06:26.523Z,97237.94
2019-05-12T11:07:30.395Z,97233.31
2019-05-12T11:08:35.607Z,97237.97
2019-05-12T11:10:57.687Z,97235.37
2019-05-12T11:11:57.574Z,97241.86
2019-05-12T11:13:05.885Z,97255.61
2019-05-12T11:14:07.460Z,97239.97
2019-05-12T11:15:13.635Z,97240.05
2019-05-12T11:16:22.927Z,97233.20
2019-05-12T11:17:28.359Z,97220.64
2019-05-12T11:18:34.050Z,97227.61
2019-05-12T11:19:40.930Z,97223.31
2019-05-12T11:20:45.035Z,97235.05
2019-05-12T11:21:49.462Z,97236.80
2019-05-12T11:22:54.300Z,97229.73
2019-05-12T11:23:58.772Z,97224.50
2019-05-12T11:25:04.289Z,97216.08
2019-05-12T11:26:08.370Z,97221.92
2019-05-12T11:27:19.245Z,97225.71
2019-05-12T11:28:24.458Z,97217.50
2019-05-12T11:29:42.482Z,97220.47
2019-05-12T11:30:49.885Z,97226.10
2019-05-12T11:31:53.986Z,97220.77
2019-05-12T11:32:59.799Z,97237.09
2019-05-12T11:34:07.998Z,97221.45
2019-05-12T11:35:14.323Z,97226.40
2019-05-12T11:36:20.867Z,97229.75
2019-05-12T11:37:25.278Z,97223.51
2019-05-12T11:38:30.486Z,97225.16
2019-05-12T11:39:38.764Z,97225.34
2019-05-12T11:40:40.188Z,97228.35
2019-05-12T11:41:44.525Z,97229.34
2019-05-12T11:42:58.981Z,97221.98
2019-05-12T11:43:54.537Z,97218.14
2019-05-12T11:44:58.179Z,97211.63
2019-05-12T11:46:04.542Z,97216.30
2019-05-12T11:47:14.754Z,97218.90
2019-05-12T11:48:19.057Z,97209.80
2019-05-12T11:49:26.268Z,97211.71
2019-05-12T11:50:27.649Z,97208.48
2019-05-12T11:51:31.303Z,97206.20
2019-05-12T11:52:38.438Z,97213.05
2019-05-12T11:53:44.371Z,97199.69
2019-05-12T11:54:53.779Z,97198.06
2019-05-12T11:56:02.220Z,97202.36
2019-05-12T11:57:06.401Z,97202.53
2019-05-12T11:58:11.714Z,97202.21
2019-05-12T11:59:16.025Z,97202.63
2019-05-12T12:00:21.312Z,97200.05
2019-05-12T12:01:26.391Z,97209.08
2019-05-12T12:02:30.720Z,97212.27
2019-05-12T12:03:34.992Z,97208.57
2019-05-12T12:04:47.671Z,97215.63
2019-05-12T12:05:53.783Z,97221.05
2019-05-12T12:06:57.690Z,97197.03
2019-05-12T12:08:04.035Z,97202.64
2019-05-12T12:09:09.346Z,97201.78
2019-05-12T12:10:14.384Z,97192.91
2019-05-12T12:11:24.291Z,97205.70
2019-05-12T12:12:24.318Z,97208.69
2019-05-12T12:13:30.056Z,97210.98
2019-05-12T12:14:34.511Z,97203.25
2019-05-12T12:15:38.229Z,97198.09
2019-05-12T12:16:50.175Z,97196.36
2019-05-12T12:17:48.197Z,97203.70
2019-05-12T12:19:02.229Z,97200.38
2019-05-12T12:19:58.588Z,97201.91
2019-05-12T12:21:07.311Z,97184.98
2019-05-12T12:22:08.153Z,97192.34
2019-05-12T12:23:14.068Z,97195.11
2019-05-12T12:24:21.399Z,97183.94
2019-05-12T12:25:24.915Z,97194.45
2019-05-12T12:26:30.381Z,97191.21
2019-05-12T12:27:34.608Z,97196.89
2019-05-12T12:28:38.249Z,97199.35
2019-05-12T12:29:43.875Z,97183.66
2019-05-12T12:30:52.430Z,97184.08
2019-05-12T12:32:18.418Z,97192.98
2019-05-12T12:33:15.834Z,97195.34
2019-05-12T12:34:29.569Z,97187.31
2019-05-12T12:35:25.780Z,97189.19
2019-05-12T12:36:30.276Z,97183.59
2019-05-12T12:37:33.906Z,97191.55
2019-05-12T12:38:38.134Z,97183.28
2019-05-12T12:39:43.935Z,97181.09
2019-05-12T12:40:48.127Z,97187.20
2019-05-12T12:41:56.071Z,97186.03
2019-05-12T12:42:57.726Z,97192.59
2019-05-12T12:44:01.400Z,97184.14
2019-05-12T12:45:14.427Z,97186.55
2019-05-12T12:46:24.376Z,97184.72
2019-05-12T12:47:28.407Z,97180.44